Time;durP1;ratioP1;P1;durP2;ratioP2;P2;SDS_P1;SDS_P2;PMS_P1;PMS_P2;Temp;Humidity;BMP_temperature;BMP_pressure;BME280_temperature;BME280_humidity;BME280_pressure;Samples;Min_cycle;Max_cycle;Signal;HPM_P1;HPM_P2
2023/12/18 00:02:15;;;;;;;5.40;3.60;;;;;;;;;;5075360;28;20935;-59
2023/12/18 00:04:42;;;;;;;3.33;3.13;;;;;;;;;;5075271;28;20439;-59
2023/12/18 00:07:09;;;;;;;3.90;3.60;;;;;;;;;;5075189;28;20527;-59
2023/12/18 00:09:38;;;;;;;4.20;3.83;;;;;;;;;;5075037;28;20445;-59
2023/12/18 00:12:06;;;;;;;4.40;4.00;;;;;;;;;;5074904;28;20492;-59
2023/12/18 00:14:33;;;;;;;5.60;4.20;;;;;;;;;;5075077;28;20527;-59
2023/12/18 00:17:00;;;;;;;3.60;3.30;;;;;;;;;;5074976;28;20617;-59
2023/12/18 00:19:27;;;;;;;4.07;3.40;;;;;;;;;;5074993;28;20444;-59
2023/12/18 00:21:54;;;;;;;4.50;4.20;;;;;;;;;;5074929;28;20882;-59
2023/12/18 00:24:21;;;;;;;5.70;4.27;;;;;;;;;;5074823;28;20447;-59
2023/12/18 00:26:48;;;;;;;4.90;4.20;;;;;;;;;;5074873;28;20542;-59
2023/12/18 00:29:16;;;;;;;3.87;3.57;;;;;;;;;;5075061;28;20444;-59
2023/12/18 00:31:43;;;;;;;5.23;4.27;;;;;;;;;;5074774;28;20486;-59
2023/12/18 00:34:10;;;;;;;4.03;3.73;;;;;;;;;;5074655;28;20447;-59
2023/12/18 00:36:37;;;;;;;3.67;3.37;;;;;;;;;;5074423;28;20554;-59
2023/12/18 00:39:05;;;;;;;5.43;3.97;;;;;;;;;;5074388;28;20543;-59
2023/12/18 00:41:32;;;;;;;5.13;4.03;;;;;;;;;;5074382;28;20451;-59
2023/12/18 00:43:59;;;;;;;5.03;4.60;;;;;;;;;;5074476;28;20449;-58
2023/12/18 00:46:27;;;;;;;4.40;4.00;;;;;;;;;;5074470;28;20554;-59
2023/12/18 00:48:54;;;;;;;4.90;4.40;;;;;;;;;;5074324;28;20538;-59
2023/12/18 00:51:21;;;;;;;4.50;4.10;;;;;;;;;;5074236;28;20878;-59
2023/12/18 00:53:48;;;;;;;5.70;4.67;;;;;;;;;;5074085;28;20478;-59
2023/12/18 00:56:15;;;;;;;5.83;4.60;;;;;;;;;;5073787;28;20559;-59
2023/12/18 00:58:42;;;;;;;4.13;3.73;;;;;;;;;;5074217;28;20451;-59
2023/12/18 01:01:09;;;;;;;5.60;5.10;;;;;;;;;;5074047;28;20536;-59
2023/12/18 01:03:38;;;;;;;7.47;4.00;;;;;;;;;;5073986;28;20534;-59
2023/12/18 01:06:05;;;;;;;5.27;4.30;;;;;;;;;;5073896;28;20447;-59
2023/12/18 01:08:32;;;;;;;5.20;4.73;;;;;;;;;;5073743;28;20447;-59
2023/12/18 01:10:59;;;;;;;5.20;4.67;;;;;;;;;;5073965;28;20450;-59
2023/12/18 01:13:26;;;;;;;4.90;4.30;;;;;;;;;;5073717;28;20965;-59
2023/12/18 01:15:53;;;;;;;4.90;3.90;;;;;;;;;;5073859;28;20466;-59
2023/12/18 01:18:20;;;;;;;4.20;3.80;;;;;;;;;;5073586;28;21016;-59
2023/12/18 01:20:48;;;;;;;6.53;4.60;;;;;;;;;;5073640;28;20904;-59
2023/12/18 01:23:15;;;;;;;5.63;3.60;;;;;;;;;;5073472;28;20475;-59
2023/12/18 01:25:42;;;;;;;5.27;4.57;;;;;;;;;;5073670;28;20451;-59
2023/12/18 01:28:09;;;;;;;4.83;4.00;;;;;;;;;;5073567;28;20895;-59
2023/12/18 01:30:36;;;;;;;4.67;4.17;;;;;;;;;;5073464;28;20443;-59
2023/12/18 01:33:03;;;;;;;5.20;4.70;;;;;;;;;;5073458;28;20483;-59
2023/12/18 01:35:30;;;;;;;4.67;4.23;;;;;;;;;;5073322;28;20443;-59
2023/12/18 01:37:58;;;;;;;5.93;4.87;;;;;;;;;;5073351;28;20570;-59
2023/12/18 01:40:25;;;;;;;4.83;4.10;;;;;;;;;;5073270;28;20954;-59
2023/12/18 01:42:52;;;;;;;7.97;5.10;;;;;;;;;;5073315;28;20531;-59
2023/12/18 01:45:19;;;;;;;5.50;4.83;;;;;;;;;;5073255;28;20884;-59
2023/12/18 01:47:46;;;;;;;5.67;5.17;;;;;;;;;;5073459;28;20542;-59
2023/12/18 01:50:13;;;;;;;4.13;3.70;;;;;;;;;;5073064;28;20443;-59
2023/12/18 01:52:41;;;;;;;7.03;4.40;;;;;;;;;;5073274;28;20534;-59
2023/12/18 01:55:10;;;;;;;4.83;3.77;;;;;;;;;;5073030;28;20475;-59
2023/12/18 01:57:37;;;;;;;4.67;4.30;;;;;;;;;;5073294;28;20577;-59
2023/12/18 02:00:05;;;;;;;7.00;4.60;;;;;;;;;;5073101;28;20479;-59
2023/12/18 02:02:32;;;;;;;5.97;4.60;;;;;;;;;;5072992;28;20535;-59
2023/12/18 02:04:59;;;;;;;6.40;4.80;;;;;;;;;;5072919;28;20952;-59
2023/12/18 02:07:27;;;;;;;5.27;4.77;;;;;;;;;;5073114;28;20447;-59
2023/12/18 02:09:54;;;;;;;5.17;4.60;;;;;;;;;;5072981;28;20450;-59
2023/12/18 02:12:22;;;;;;;6.37;5.13;;;;;;;;;;5072963;28;20697;-59
2023/12/18 02:14:49;;;;;;;8.10;4.67;;;;;;;;;;5072924;28;20521;-59
2023/12/18 02:17:16;;;;;;;5.93;4.97;;;;;;;;;;5072722;28;20546;-59
2023/12/18 02:19:43;;;;;;;5.97;5.17;;;;;;;;;;5073036;28;20442;-59
2023/12/18 02:22:09;;;;;;;5.50;4.87;;;;;;;;;;5072500;28;20443;-59
2023/12/18 02:24:38;;;;;;;4.83;4.43;;;;;;;;;;5073075;28;20440;-59
2023/12/18 02:27:05;;;;;;;6.53;5.30;;;;;;;;;;5072883;28;20451;-59
2023/12/18 02:29:32;;;;;;;4.63;4.23;;;;;;;;;;5072696;28;20530;-59
2023/12/18 02:31:58;;;;;;;5.27;4.20;;;;;;;;;;5072638;28;20881;-59
2023/12/18 02:34:25;;;;;;;6.90;5.10;;;;;;;;;;5073121;28;20446;-59
2023/12/18 02:36:52;;;;;;;4.87;4.37;;;;;;;;;;5072879;28;20446;-60
2023/12/18 02:39:19;;;;;;;6.13;4.23;;;;;;;;;;5072722;28;20550;-59
2023/12/18 02:41:47;;;;;;;5.20;4.70;;;;;;;;;;5072630;28;20443;-59
2023/12/18 02:44:14;;;;;;;4.80;4.30;;;;;;;;;;5072538;28;21019;-59
2023/12/18 02:46:41;;;;;;;4.40;3.97;;;;;;;;;;5072743;28;20569;-59
2023/12/18 02:49:08;;;;;;;5.60;4.37;;;;;;;;;;5072647;28;20456;-59
2023/12/18 02:51:35;;;;;;;5.30;4.70;;;;;;;;;;5072600;28;20530;-59
2023/12/18 02:54:02;;;;;;;6.77;4.77;;;;;;;;;;5072509;28;20542;-59
2023/12/18 02:56:29;;;;;;;5.83;4.63;;;;;;;;;;5072513;28;20506;-58
2023/12/18 02:58:57;;;;;;;5.30;4.77;;;;;;;;;;5072321;28;20808;-59
2023/12/18 03:01:24;;;;;;;5.20;4.70;;;;;;;;;;5072611;28;20447;-59
2023/12/18 03:03:51;;;;;;;5.33;4.43;;;;;;;;;;5072509;28;20531;-59
2023/12/18 03:06:17;;;;;;;5.83;5.10;;;;;;;;;;5072479;28;20450;-59
2023/12/18 03:08:44;;;;;;;4.63;4.23;;;;;;;;;;5072491;28;20545;-59
2023/12/18 03:11:11;;;;;;;9.60;6.00;;;;;;;;;;5072319;28;20451;-59
2023/12/18 03:13:38;;;;;;;6.47;4.50;;;;;;;;;;5072211;28;20479;-59
2023/12/18 03:16:08;;;;;;;5.87;4.73;;;;;;;;;;5072479;28;20883;-59
2023/12/18 03:18:34;;;;;;;5.17;4.67;;;;;;;;;;5072307;28;20483;-59
2023/12/18 03:21:01;;;;;;;4.87;4.47;;;;;;;;;;5072382;28;20534;-59
2023/12/18 03:23:28;;;;;;;7.10;5.73;;;;;;;;;;5072205;28;20530;-59
2023/12/18 03:25:55;;;;;;;5.07;4.33;;;;;;;;;;5072109;28;20968;-59
2023/12/18 03:28:22;;;;;;;5.20;4.70;;;;;;;;;;5072353;28;20534;-59
2023/12/18 03:30:49;;;;;;;5.17;4.67;;;;;;;;;;5072337;28;20449;-59
2023/12/18 03:33:17;;;;;;;5.80;5.17;;;;;;;;;;5072285;28;20526;-59
2023/12/18 03:35:44;;;;;;;5.67;5.17;;;;;;;;;;5074645;28;20475;-59
2023/12/18 03:38:11;;;;;;;5.63;4.83;;;;;;;;;;5075601;28;20478;-59
2023/12/18 03:40:38;;;;;;;4.93;4.37;;;;;;;;;;5075466;28;20531;-59
2023/12/18 03:43:06;;;;;;;5.43;4.93;;;;;;;;;;5075784;28;20443;-59
2023/12/18 03:45:33;;;;;;;6.90;4.80;;;;;;;;;;5075417;28;20534;-59
2023/12/18 03:48:00;;;;;;;6.43;5.83;;;;;;;;;;5075706;28;20531;-59
2023/12/18 03:50:28;;;;;;;5.60;5.10;;;;;;;;;;5075436;28;20443;-59
2023/12/18 03:52:55;;;;;;;6.50;5.57;;;;;;;;;;5075313;28;20530;-59
2023/12/18 03:55:22;;;;;;;9.13;5.70;;;;;;;;;;5075477;28;20471;-59
2023/12/18 03:57:49;;;;;;;6.20;5.30;;;;;;;;;;5075377;28;20481;-59
2023/12/18 04:00:17;;;;;;;8.03;6.07;;;;;;;;;;5075411;28;20450;-59
2023/12/18 04:02:44;;;;;;;7.57;6.30;;;;;;;;;;5075179;28;20989;-59
2023/12/18 04:05:11;;;;;;;7.90;5.57;;;;;;;;;;5075113;28;20537;-59
2023/12/18 04:07:39;;;;;;;6.33;5.70;;;;;;;;;;5075018;28;20459;-59
2023/12/18 04:10:08;;;;;;;7.53;5.73;;;;;;;;;;5075213;28;20888;-59
2023/12/18 04:12:34;;;;;;;10.10;5.90;;;;;;;;;;5075058;28;20446;-59
2023/12/18 04:15:01;;;;;;;8.73;6.30;;;;;;;;;;5075311;28;20449;-59
2023/12/18 04:17:28;;;;;;;8.50;6.90;;;;;;;;;;5074916;28;20471;-59
2023/12/18 04:19:55;;;;;;;9.77;6.50;;;;;;;;;;5074913;28;20887;-60
2023/12/18 04:22:22;;;;;;;7.43;6.30;;;;;;;;;;5074785;28;20534;-59
2023/12/18 04:24:50;;;;;;;7.90;6.60;;;;;;;;;;5074952;28;20435;-59
2023/12/18 04:27:17;;;;;;;7.43;6.73;;;;;;;;;;5074878;28;20439;-59
2023/12/18 04:29:44;;;;;;;6.73;6.03;;;;;;;;;;5074842;28;20985;-59
2023/12/18 04:32:11;;;;;;;8.87;6.60;;;;;;;;;;5074731;28;20483;-59
2023/12/18 04:34:39;;;;;;;8.30;6.30;;;;;;;;;;5074521;28;20439;-59
2023/12/18 04:37:06;;;;;;;7.90;7.20;;;;;;;;;;5074801;28;20447;-59
2023/12/18 04:39:34;;;;;;;11.87;6.93;;;;;;;;;;5074584;28;20479;-59
2023/12/18 04:42:02;;;;;;;9.50;7.30;;;;;;;;;;5074605;28;20483;-59
2023/12/18 04:44:29;;;;;;;11.00;8.17;;;;;;;;;;5074489;28;20454;-59
2023/12/18 04:46:56;;;;;;;9.90;8.47;;;;;;;;;;5073955;28;20814;-59
2023/12/18 04:49:23;;;;;;;9.37;8.20;;;;;;;;;;5074242;28;20450;-59
2023/12/18 04:51:50;;;;;;;13.87;7.80;;;;;;;;;;5074347;28;20467;-59
2023/12/18 04:54:17;;;;;;;10.07;8.77;;;;;;;;;;5074205;28;20530;-59
2023/12/18 04:56:44;;;;;;;15.83;8.93;;;;;;;;;;5074255;28;20467;-59
2023/12/18 04:59:13;;;;;;;14.70;9.70;;;;;;;;;;5073990;28;20479;-59
2023/12/18 05:01:40;;;;;;;13.20;10.27;;;;;;;;;;5074010;28;20448;-59
2023/12/18 05:04:07;;;;;;;17.73;9.77;;;;;;;;;;5074205;28;20526;-59
2023/12/18 05:06:34;;;;;;;12.10;9.83;;;;;;;;;;5074123;28;20542;-59
2023/12/18 05:09:01;;;;;;;15.27;10.83;;;;;;;;;;5073942;28;20891;-59
2023/12/18 05:11:28;;;;;;;11.23;9.33;;;;;;;;;;5073859;28;20444;-59
2023/12/18 05:13:55;;;;;;;15.67;10.20;;;;;;;;;;5074034;28;20527;-59
2023/12/18 05:16:23;;;;;;;14.40;10.70;;;;;;;;;;5073700;28;20473;-59
2023/12/18 05:18:50;;;;;;;12.07;9.80;;;;;;;;;;5073781;28;20838;-59
2023/12/18 05:21:17;;;;;;;15.37;10.40;;;;;;;;;;5073667;28;20439;-59
2023/12/18 05:23:47;;;;;;;14.87;10.43;;;;;;;;;;5073732;28;20447;-59
2023/12/18 05:26:14;;;;;;;11.93;10.47;;;;;;;;;;5073521;28;20444;-59
2023/12/18 05:28:41;;;;;;;12.23;10.93;;;;;;;;;;5073735;28;20538;-59
2023/12/18 05:31:09;;;;;;;16.17;11.73;;;;;;;;;;5073407;28;20882;-59
2023/12/18 05:33:38;;;;;;;15.63;12.30;;;;;;;;;;5073631;28;20812;-59
2023/12/18 05:36:05;;;;;;;12.77;11.40;;;;;;;;;;5073576;28;20538;-59
2023/12/18 05:38:32;;;;;;;15.33;10.73;;;;;;;;;;5073233;28;20478;-59
2023/12/18 05:40:58;;;;;;;15.07;11.40;;;;;;;;;;5073358;28;20443;-59
2023/12/18 05:43:25;;;;;;;14.90;10.73;;;;;;;;;;5073142;28;20538;-59
2023/12/18 05:45:52;;;;;;;13.27;10.53;;;;;;;;;;5073373;28;20475;-59
2023/12/18 05:48:19;;;;;;;15.30;11.93;;;;;;;;;;5073391;28;20501;-59
2023/12/18 05:50:47;;;;;;;11.87;10.70;;;;;;;;;;5073337;28;20961;-59
2023/12/18 05:53:14;;;;;;;14.10;10.03;;;;;;;;;;5073188;28;20451;-59
2023/12/18 05:55:41;;;;;;;14.80;10.80;;;;;;;;;;5072791;28;20562;-59
2023/12/18 05:58:08;;;;;;;12.17;10.83;;;;;;;;;;5072098;28;20834;-59
2023/12/18 06:00:36;;;;;;;13.10;11.50;;;;;;;;;;5073176;28;20444;-59
2023/12/18 06:03:03;;;;;;;13.23;11.23;;;;;;;;;;5072986;28;20927;-59
2023/12/18 06:05:30;;;;;;;14.50;11.77;;;;;;;;;;5073035;28;20517;-59
2023/12/18 06:07:58;;;;;;;15.30;12.00;;;;;;;;;;5072996;28;20450;-59
2023/12/18 06:10:25;;;;;;;13.00;11.67;;;;;;;;;;5072763;28;20443;-59
2023/12/18 06:12:52;;;;;;;13.77;10.40;;;;;;;;;;5072897;28;20863;-59
2023/12/18 06:15:19;;;;;;;18.33;12.00;;;;;;;;;;5072914;28;20505;-59
2023/12/18 06:17:46;;;;;;;12.40;11.00;;;;;;;;;;5072969;28;20451;-59
2023/12/18 06:20:12;;;;;;;11.80;10.60;;;;;;;;;;5072620;28;20479;-59
2023/12/18 06:22:39;;;;;;;12.40;11.20;;;;;;;;;;5072778;28;20534;-59
2023/12/18 06:25:09;;;;;;;17.67;10.90;;;;;;;;;;5072650;28;20546;-59
2023/12/18 06:27:35;;;;;;;13.53;11.00;;;;;;;;;;5073004;28;20459;-59
2023/12/18 06:30:03;;;;;;;12.90;11.30;;;;;;;;;;5072785;28;20447;-59
2023/12/18 06:32:30;;;;;;;11.90;10.33;;;;;;;;;;5072699;28;20447;-59
2023/12/18 06:34:57;;;;;;;11.63;10.27;;;;;;;;;;5072628;28;20534;-59
2023/12/18 06:37:24;;;;;;;15.10;10.80;;;;;;;;;;5072531;28;20999;-59
2023/12/18 06:39:51;;;;;;;14.43;10.50;;;;;;;;;;5072444;28;20537;-59
2023/12/18 06:42:19;;;;;;;12.73;11.43;;;;;;;;;;5072788;28;20527;-59
2023/12/18 06:44:46;;;;;;;14.20;10.40;;;;;;;;;;5072712;28;20453;-59
2023/12/18 06:47:13;;;;;;;13.57;10.47;;;;;;;;;;5072577;28;20476;-59
2023/12/18 06:49:40;;;;;;;20.80;11.10;;;;;;;;;;5072371;28;20450;-59
2023/12/18 06:52:07;;;;;;;15.40;10.97;;;;;;;;;;5072456;28;20534;-59
2023/12/18 06:54:34;;;;;;;13.87;10.53;;;;;;;;;;5072232;28;20530;-59
2023/12/18 06:57:02;;;;;;;11.13;9.93;;;;;;;;;;5072601;28;20454;-59
2023/12/18 06:59:30;;;;;;;12.57;10.50;;;;;;;;;;5072268;28;21006;-59
2023/12/18 07:01:57;;;;;;;12.23;10.90;;;;;;;;;;5072294;28;20527;-59
2023/12/18 07:04:24;;;;;;;12.20;9.80;;;;;;;;;;5072352;28;20476;-59
2023/12/18 07:06:51;;;;;;;12.30;10.40;;;;;;;;;;5072171;28;20443;-60
2023/12/18 07:09:18;;;;;;;11.77;10.27;;;;;;;;;;5074449;28;20526;-60
2023/12/18 07:11:45;;;;;;;12.13;9.83;;;;;;;;;;5076172;28;20445;-60
2023/12/18 07:14:13;;;;;;;12.57;10.10;;;;;;;;;;5075997;28;20450;-59
2023/12/18 07:16:41;;;;;;;16.90;11.03;;;;;;;;;;5075974;28;20439;-60
2023/12/18 07:19:08;;;;;;;11.77;10.33;;;;;;;;;;5075895;28;20506;-60
2023/12/18 07:21:35;;;;;;;12.20;9.40;;;;;;;;;;5075834;28;20538;-60
2023/12/18 07:24:02;;;;;;;10.57;9.43;;;;;;;;;;5076070;28;20444;-60
2023/12/18 07:26:29;;;;;;;11.13;9.73;;;;;;;;;;5075919;28;20450;-60
2023/12/18 07:28:56;;;;;;;14.20;10.07;;;;;;;;;;5075848;28;20458;-60
2023/12/18 07:31:23;;;;;;;11.07;9.97;;;;;;;;;;5075730;28;20535;-59
2023/12/18 07:33:51;;;;;;;15.53;9.37;;;;;;;;;;5075577;28;20443;-60
2023/12/18 07:36:18;;;;;;;12.23;9.53;;;;;;;;;;5075643;28;20447;-59
2023/12/18 07:38:45;;;;;;;11.00;9.20;;;;;;;;;;5075805;28;20471;-60
2023/12/18 07:41:12;;;;;;;9.20;8.30;;;;;;;;;;5075455;28;20443;-60
2023/12/18 07:43:39;;;;;;;14.13;9.53;;;;;;;;;;5075511;28;20458;-60
2023/12/18 07:46:07;;;;;;;14.57;9.93;;;;;;;;;;5075437;28;20447;-59
2023/12/18 07:48:34;;;;;;;11.00;8.87;;;;;;;;;;5075250;28;20451;-59
2023/12/18 07:51:02;;;;;;;12.30;9.67;;;;;;;;;;5075511;28;20540;-60
2023/12/18 07:53:29;;;;;;;12.50;10.13;;;;;;;;;;5075390;28;20888;-59
2023/12/18 07:55:56;;;;;;;10.60;9.60;;;;;;;;;;5075344;28;20554;-59
2023/12/18 07:58:23;;;;;;;13.00;9.10;;;;;;;;;;5075194;28;20534;-59
2023/12/18 08:00:49;;;;;;;10.27;9.27;;;;;;;;;;5075128;28;20829;-60
2023/12/18 08:03:16;;;;;;;11.40;9.20;;;;;;;;;;5075322;28;20537;-60
2023/12/18 08:05:43;;;;;;;9.57;8.57;;;;;;;;;;5075177;28;20542;-60
2023/12/18 08:08:11;;;;;;;9.90;8.90;;;;;;;;;;5075100;28;20881;-62
2023/12/18 08:10:38;;;;;;;13.03;8.73;;;;;;;;;;5074990;28;20538;-63
2023/12/18 08:13:06;;;;;;;11.70;8.87;;;;;;;;;;5074812;28;20570;-61
2023/12/18 08:15:33;;;;;;;9.87;8.87;;;;;;;;;;5074374;28;20440;-61
2023/12/18 08:17:59;;;;;;;15.83;9.43;;;;;;;;;;5074898;28;20853;-61
2023/12/18 08:20:26;;;;;;;11.13;9.70;;;;;;;;;;5073966;28;20505;-61
2023/12/18 08:22:53;;;;;;;11.80;9.10;;;;;;;;;;5074750;28;20534;-58
2023/12/18 08:25:21;;;;;;;10.10;8.63;;;;;;;;;;5074561;28;20531;-59
2023/12/18 08:27:48;;;;;;;10.73;8.23;;;;;;;;;;5075213;28;20473;-60
2023/12/18 08:30:16;;;;;;;14.13;10.20;;;;;;;;;;5074944;28;20540;-60
2023/12/18 08:32:43;;;;;;;9.87;7.97;;;;;;;;;;5074382;28;20510;-61
2023/12/18 08:35:10;;;;;;;11.40;10.20;;;;;;;;;;5074624;28;20550;-60
2023/12/18 08:37:37;;;;;;;14.30;9.40;;;;;;;;;;5074522;28;20443;-62
2023/12/18 08:40:04;;;;;;;9.60;8.43;;;;;;;;;;5074269;28;20832;-61
2023/12/18 08:42:32;;;;;;;9.57;7.73;;;;;;;;;;5074544;28;20475;-59
2023/12/18 08:44:59;;;;;;;12.30;8.50;;;;;;;;;;5074607;28;20450;-61
2023/12/18 08:47:26;;;;;;;9.77;8.77;;;;;;;;;;5074409;28;20450;-61
2023/12/18 08:49:53;;;;;;;10.60;9.60;;;;;;;;;;5074277;28;20454;-64
2023/12/18 08:52:20;;;;;;;15.33;10.57;;;;;;;;;;5074184;28;20534;-64
2023/12/18 08:54:47;;;;;;;13.30;10.30;;;;;;;;;;5074016;28;20529;-60
2023/12/18 08:57:14;;;;;;;13.40;9.60;;;;;;;;;;5073920;28;20868;-61
2023/12/18 08:59:42;;;;;;;16.03;11.23;;;;;;;;;;5073851;28;20482;-63
2023/12/18 09:02:10;;;;;;;9.60;8.70;;;;;;;;;;5074198;28;20450;-64
2023/12/18 09:04:37;;;;;;;10.10;8.97;;;;;;;;;;5073880;28;20443;-59
2023/12/18 09:07:04;;;;;;;16.60;8.60;;;;;;;;;;5073786;28;20475;-62
2023/12/18 09:09:31;;;;;;;8.77;7.23;;;;;;;;;;5073819;28;20534;-62
2023/12/18 09:11:58;;;;;;;8.80;7.90;;;;;;;;;;5073707;28;20956;-64
2023/12/18 09:14:24;;;;;;;9.07;8.17;;;;;;;;;;5073834;28;20443;-61
2023/12/18 09:16:53;;;;;;;8.03;6.97;;;;;;;;;;5073998;28;20504;-60
2023/12/18 09:19:20;;;;;;;10.57;7.43;;;;;;;;;;5073478;28;20478;-60
2023/12/18 09:21:46;;;;;;;9.50;7.00;;;;;;;;;;5073556;28;20448;-61
2023/12/18 09:24:13;;;;;;;8.40;6.83;;;;;;;;;;5073325;28;20448;-61
2023/12/18 09:26:40;;;;;;;8.23;6.93;;;;;;;;;;5073642;28;20534;-61
2023/12/18 09:29:07;;;;;;;10.17;6.30;;;;;;;;;;5073578;28;20827;-61
2023/12/18 09:31:34;;;;;;;8.00;7.30;;;;;;;;;;5073353;28;20447;-62
2023/12/18 09:34:02;;;;;;;7.83;6.93;;;;;;;;;;5073280;28;20938;-60
2023/12/18 09:36:29;;;;;;;11.13;7.70;;;;;;;;;;5073819;28;20436;-61
2023/12/18 09:38:56;;;;;;;6.90;6.30;;;;;;;;;;5072991;28;20943;-61
2023/12/18 09:41:23;;;;;;;7.57;6.77;;;;;;;;;;5073047;28;20474;-60
2023/12/18 09:43:51;;;;;;;8.23;7.43;;;;;;;;;;5073053;28;20447;-60
2023/12/18 09:46:19;;;;;;;7.83;6.70;;;;;;;;;;5073195;28;20440;-60
2023/12/18 09:48:46;;;;;;;8.33;7.47;;;;;;;;;;5072955;28;20538;-60
2023/12/18 09:51:17;;;;;;;8.13;7.00;;;;;;;;;;5073028;28;20807;-60
2023/12/18 09:53:44;;;;;;;7.17;6.43;;;;;;;;;;5073218;28;20878;-60
2023/12/18 09:56:11;;;;;;;7.97;7.17;;;;;;;;;;5072729;28;20553;-59
2023/12/18 09:58:38;;;;;;;7.80;6.80;;;;;;;;;;5072699;28;20440;-61
2023/12/18 10:01:05;;;;;;;7.10;6.50;;;;;;;;;;5072864;28;20572;-70
2023/12/18 10:03:32;;;;;;;7.87;6.87;;;;;;;;;;5072883;28;20479;-61
2023/12/18 10:06:00;;;;;;;7.60;6.90;;;;;;;;;;5072869;28;20450;-58
2023/12/18 10:08:28;;;;;;;9.33;7.30;;;;;;;;;;5073019;28;20846;-59
2023/12/18 10:10:55;;;;;;;8.40;6.40;;;;;;;;;;5072980;28;20621;-61
2023/12/18 10:13:22;;;;;;;8.63;7.10;;;;;;;;;;5072956;28;20538;-62
2023/12/18 10:15:49;;;;;;;9.00;7.37;;;;;;;;;;5072752;28;20883;-61
2023/12/18 10:18:17;;;;;;;8.00;7.20;;;;;;;;;;5072796;28;20447;-61
2023/12/18 10:20:44;;;;;;;7.43;6.73;;;;;;;;;;5072766;28;20486;-61
2023/12/18 10:23:14;;;;;;;7.73;6.93;;;;;;;;;;5072952;28;20447;-59
2023/12/18 10:25:42;;;;;;;8.80;7.60;;;;;;;;;;5073024;28;20443;-60
2023/12/18 10:28:09;;;;;;;9.60;7.00;;;;;;;;;;5072782;28;20539;-60
2023/12/18 10:30:37;;;;;;;9.40;7.07;;;;;;;;;;5072641;28;20534;-61
2023/12/18 10:33:09;;;;;;;9.83;6.77;;;;;;;;;;5072558;28;20814;-61
2023/12/18 10:35:36;;;;;;;10.33;7.37;;;;;;;;;;5072845;28;20807;-61
2023/12/18 10:38:03;;;;;;;8.87;7.13;;;;;;;;;;5072486;28;20633;-59
2023/12/18 10:40:30;;;;;;;14.80;7.83;;;;;;;;;;5072529;28;20566;-61
2023/12/18 10:43:03;;;;;;;8.30;7.47;;;;;;;;;;5072387;28;20450;-59
2023/12/18 10:45:31;;;;;;;10.13;6.77;;;;;;;;;;5076385;28;20443;-60
2023/12/18 10:47:59;;;;;;;12.07;7.57;;;;;;;;;;5076393;28;20479;-59
2023/12/18 10:50:27;;;;;;;15.00;8.50;;;;;;;;;;5076484;28;20459;-62
2023/12/18 10:52:56;;;;;;;7.67;6.97;;;;;;;;;;5076526;28;20522;-60
2023/12/18 10:55:23;;;;;;;33.57;9.87;;;;;;;;;;5076293;28;20553;-60
2023/12/18 10:57:50;;;;;;;36.53;13.57;;;;;;;;;;5076224;28;20530;-60
2023/12/18 11:00:19;;;;;;;22.37;9.37;;;;;;;;;;5075941;28;20554;-59
2023/12/18 11:02:47;;;;;;;7.97;6.97;;;;;;;;;;5076310;28;20536;-59
2023/12/18 11:05:15;;;;;;;10.83;7.87;;;;;;;;;;5076192;28;20485;-58
2023/12/18 11:07:42;;;;;;;15.93;7.30;;;;;;;;;;5076106;28;20808;-58
2023/12/18 11:10:09;;;;;;;7.70;6.83;;;;;;;;;;5076390;28;20534;-60
2023/12/18 11:12:39;;;;;;;7.90;7.10;;;;;;;;;;5075864;28;20851;-60
2023/12/18 11:15:11;;;;;;;7.37;6.67;;;;;;;;;;5076165;28;20879;-59
2023/12/18 11:17:42;;;;;;;7.47;6.80;;;;;;;;;;5075862;28;20526;-60
2023/12/18 11:20:12;;;;;;;6.97;6.37;;;;;;;;;;5075902;28;20485;-60
2023/12/18 11:22:45;;;;;;;9.33;6.90;;;;;;;;;;5075448;28;20538;-60
2023/12/18 11:25:12;;;;;;;11.30;7.17;;;;;;;;;;5075764;28;20804;-60
2023/12/18 11:27:40;;;;;;;8.27;7.37;;;;;;;;;;5075891;28;20530;-60
2023/12/18 11:30:22;;;;;;;8.80;6.90;;;;;;;;;;5075767;28;20444;-60
2023/12/18 11:32:51;;;;;;;24.40;7.13;;;;;;;;;;5075646;28;20455;-60
2023/12/18 11:35:22;;;;;;;6.87;6.00;;;;;;;;;;5075618;28;20452;-60
2023/12/18 11:37:51;;;;;;;9.80;7.40;;;;;;;;;;5075524;28;20447;-59
2023/12/18 11:40:38;;;;;;;7.23;6.53;;;;;;;;;;5075533;28;20910;-59
2023/12/18 11:43:06;;;;;;;8.77;7.27;;;;;;;;;;5075485;28;20447;-59
2023/12/18 11:45:33;;;;;;;9.03;6.93;;;;;;;;;;5075365;28;20806;-60
2023/12/18 11:48:02;;;;;;;9.17;7.87;;;;;;;;;;5074913;28;20443;-59
2023/12/18 11:50:32;;;;;;;8.73;7.83;;;;;;;;;;5075405;28;20479;-60
2023/12/18 11:52:59;;;;;;;10.77;7.80;;;;;;;;;;5075456;28;20443;-60
2023/12/18 11:55:47;;;;;;;9.03;7.13;;;;;;;;;;5073874;28;20495;-61
2023/12/18 11:58:15;;;;;;;9.70;7.40;;;;;;;;;;5075130;28;21045;-60
2023/12/18 12:00:41;;;;;;;9.03;8.13;;;;;;;;;;5074906;28;20485;-60
2023/12/18 12:03:10;;;;;;;7.43;6.73;;;;;;;;;;5075190;28;20879;-60
2023/12/18 12:05:38;;;;;;;10.27;8.30;;;;;;;;;;5074989;28;20502;-58
2023/12/18 12:08:05;;;;;;;16.25;12.13;;;;;;;;;;5074104;28;20453;-58
2023/12/18 12:10:40;;;;;;;9.90;8.20;;;;;;;;;;5074983;28;20197;-60
2023/12/18 12:13:07;;;;;;;9.13;8.33;;;;;;;;;;5074866;28;20446;-61
2023/12/18 12:15:34;;;;;;;9.60;7.40;;;;;;;;;;5074875;28;20598;-61
2023/12/18 12:18:04;;;;;;;11.70;7.90;;;;;;;;;;5074134;28;20447;-60
2023/12/18 12:20:33;;;;;;;11.90;8.63;;;;;;;;;;5071790;28;20513;-61
2023/12/18 12:23:00;;;;;;;13.07;9.27;;;;;;;;;;5074750;28;20554;-61
2023/12/18 12:25:27;;;;;;;10.30;7.67;;;;;;;;;;5074459;28;20439;-61
2023/12/18 12:27:54;;;;;;;12.33;8.87;;;;;;;;;;5074296;28;20534;-60
2023/12/18 12:30:21;;;;;;;12.07;8.70;;;;;;;;;;5074592;28;20543;-59
2023/12/18 12:32:48;;;;;;;11.37;9.53;;;;;;;;;;5074656;28;20874;-60
2023/12/18 12:35:17;;;;;;;13.93;9.17;;;;;;;;;;5074429;28;20479;-60
2023/12/18 12:37:46;;;;;;;9.10;7.63;;;;;;;;;;5074128;28;20835;-63
2023/12/18 12:40:13;;;;;;;9.17;7.20;;;;;;;;;;5074193;28;20562;-60
2023/12/18 12:42:42;;;;;;;13.13;7.93;;;;;;;;;;5074436;28;20469;-60
2023/12/18 12:45:10;;;;;;;10.80;8.17;;;;;;;;;;5074324;28;20622;-60
2023/12/18 12:47:39;;;;;;;9.90;7.93;;;;;;;;;;5074348;28;20593;-60
2023/12/18 12:50:07;;;;;;;17.67;9.47;;;;;;;;;;5074221;28;20444;-60
2023/12/18 12:52:36;;;;;;;11.00;8.20;;;;;;;;;;5074039;28;20443;-59
2023/12/18 12:55:04;;;;;;;10.40;8.43;;;;;;;;;;5073934;28;20970;-62
2023/12/18 12:57:31;;;;;;;18.97;10.23;;;;;;;;;;5074245;28;20530;-62
2023/12/18 12:59:58;;;;;;;22.90;9.60;;;;;;;;;;5073987;28;20550;-59
2023/12/18 13:02:26;;;;;;;9.70;8.13;;;;;;;;;;5074012;28;20504;-59
2023/12/18 13:04:53;;;;;;;10.70;9.53;;;;;;;;;;5073763;28;20882;-60
2023/12/18 13:07:21;;;;;;;49.87;12.80;;;;;;;;;;5073397;28;20451;-59
2023/12/18 13:09:48;;;;;;;14.47;9.57;;;;;;;;;;5073964;28;20446;-59
2023/12/18 13:12:17;;;;;;;13.47;8.97;;;;;;;;;;5073831;28;20447;-61
2023/12/18 13:14:43;;;;;;;13.63;8.73;;;;;;;;;;5073743;28;20442;-61
2023/12/18 13:17:10;;;;;;;12.03;9.00;;;;;;;;;;5073666;28;20525;-61
2023/12/18 13:19:37;;;;;;;14.30;8.83;;;;;;;;;;5073519;28;20832;-59
2023/12/18 13:22:05;;;;;;;16.47;8.73;;;;;;;;;;5073973;28;20553;-60
2023/12/18 13:24:32;;;;;;;8.23;7.40;;;;;;;;;;5073646;28;20443;-61
2023/12/18 13:27:00;;;;;;;10.27;8.47;;;;;;;;;;5073457;28;20447;-61
2023/12/18 13:29:32;;;;;;;8.43;7.20;;;;;;;;;;5073321;28;20830;-60
2023/12/18 13:32:00;;;;;;;22.33;10.40;;;;;;;;;;5073497;28;20455;-63
2023/12/18 13:34:26;;;;;;;9.43;8.27;;;;;;;;;;5073263;28;20443;-62
2023/12/18 13:36:53;;;;;;;9.63;6.93;;;;;;;;;;5073133;28;20451;-61
2023/12/18 13:39:20;;;;;;;9.50;7.27;;;;;;;;;;5073253;28;20459;-59
2023/12/18 13:41:48;;;;;;;13.43;8.73;;;;;;;;;;5073149;28;20911;-60
2023/12/18 13:44:15;;;;;;;8.13;6.67;;;;;;;;;;5073144;28;20451;-59
2023/12/18 13:46:43;;;;;;;8.73;6.67;;;;;;;;;;5072969;28;20439;-60
2023/12/18 13:49:10;;;;;;;11.37;7.30;;;;;;;;;;5073200;28;20447;-60
2023/12/18 13:51:37;;;;;;;9.27;8.23;;;;;;;;;;5073218;28;20439;-60
2023/12/18 13:54:04;;;;;;;12.20;8.23;;;;;;;;;;5072838;28;20958;-63
2023/12/18 13:56:31;;;;;;;9.80;6.70;;;;;;;;;;5073008;28;20554;-63
2023/12/18 13:59:00;;;;;;;11.77;6.73;;;;;;;;;;5072729;28;20530;-63
2023/12/18 14:01:27;;;;;;;7.00;6.30;;;;;;;;;;5072667;28;20549;-62
2023/12/18 14:03:56;;;;;;;8.57;6.87;;;;;;;;;;5072890;28;20534;-63
2023/12/18 14:06:24;;;;;;;7.23;6.50;;;;;;;;;;5072887;28;20445;-59
2023/12/18 14:08:51;;;;;;;6.70;6.07;;;;;;;;;;5072854;28;20530;-60
2023/12/18 14:11:18;;;;;;;9.30;5.57;;;;;;;;;;5072433;28;20525;-59
2023/12/18 14:13:45;;;;;;;7.63;6.20;;;;;;;;;;5072703;28;20448;-60
2023/12/18 14:16:12;;;;;;;6.20;5.60;;;;;;;;;;5072903;28;20510;-60
2023/12/18 14:18:39;;;;;;;7.87;6.30;;;;;;;;;;5072064;28;20542;-59
2023/12/18 14:21:07;;;;;;;6.73;6.03;;;;;;;;;;5072661;28;20560;-60
2023/12/18 14:23:34;;;;;;;8.43;7.50;;;;;;;;;;5072753;28;20584;-60
2023/12/18 14:26:01;;;;;;;8.60;7.50;;;;;;;;;;5072626;28;20531;-59
2023/12/18 14:28:30;;;;;;;9.90;7.77;;;;;;;;;;5072467;28;20443;-59
2023/12/18 14:30:57;;;;;;;7.27;6.57;;;;;;;;;;5072741;28;20451;-60
2023/12/18 14:33:24;;;;;;;7.00;6.30;;;;;;;;;;5072564;28;20447;-59
2023/12/18 14:35:51;;;;;;;9.73;5.60;;;;;;;;;;5072814;28;20538;-60
2023/12/18 14:38:19;;;;;;;6.50;5.30;;;;;;;;;;5072703;28;20526;-60